Time;durP1;ratioP1;P1;durP2;ratioP2;P2;SDS_P1;SDS_P2;PMS_P1;PMS_P2;Temp;Humidity;BMP_temperature;BMP_pressure;BME280_temperature;BME280_humidity;BME280_pressure;Samples;Min_cycle;Max_cycle;Signal;HPM_P1;HPM_P2
2021/10/06 00:00:22;;;;;;;20.60;19.50;;;;;;;;;;4997943;28;20419;-89
2021/10/06 00:02:49;;;;;;;20.23;19.03;;;;;;;;;;4997471;28;20928;-89
2021/10/06 00:05:16;;;;;;;20.43;19.03;;;;;;;;;;4997924;28;20444;-89
2021/10/06 00:07:44;;;;;;;19.30;18.17;;;;;;;;;;4997964;28;20436;-89
2021/10/06 00:10:11;;;;;;;22.70;21.10;;;;;;;;;;4997925;28;20460;-89
2021/10/06 00:12:40;;;;;;;19.77;18.47;;;;;;;;;;4997605;28;20415;-89
2021/10/06 00:15:10;;;;;;;20.87;19.60;;;;;;;;;;4997788;28;20836;-88
2021/10/06 00:17:38;;;;;;;20.60;19.40;;;;;;;;;;4997474;28;20436;-89
2021/10/06 00:20:06;;;;;;;22.93;21.33;;;;;;;;;;4997593;28;20508;-88
2021/10/06 00:22:33;;;;;;;21.37;19.93;;;;;;;;;;4997479;28;20461;-89
2021/10/06 00:25:00;;;;;;;21.80;20.50;;;;;;;;;;4997279;28;20458;-89
2021/10/06 00:27:28;;;;;;;19.80;18.60;;;;;;;;;;4997516;28;20437;-89
2021/10/06 00:29:56;;;;;;;19.93;18.90;;;;;;;;;;4997472;28;20486;-89
2021/10/06 00:32:24;;;;;;;20.20;19.07;;;;;;;;;;4997473;28;20436;-90
2021/10/06 00:34:52;;;;;;;21.43;20.03;;;;;;;;;;4997547;28;20419;-90
2021/10/06 00:37:20;;;;;;;20.23;19.07;;;;;;;;;;4997216;28;20445;-89
2021/10/06 00:39:47;;;;;;;21.87;20.47;;;;;;;;;;4997376;28;20439;-89
2021/10/06 00:42:14;;;;;;;21.60;19.50;;;;;;;;;;4997191;28;20423;-89
2021/10/06 00:44:42;;;;;;;21.80;20.07;;;;;;;;;;4997176;28;20427;-87
2021/10/06 00:47:14;;;;;;;20.17;18.90;;;;;;;;;;4997138;28;20473;-89
2021/10/06 00:49:41;;;;;;;23.23;21.57;;;;;;;;;;4996838;28;20470;-89
2021/10/06 00:52:09;;;;;;;22.13;20.53;;;;;;;;;;4996889;28;20453;-89
2021/10/06 00:54:37;;;;;;;21.93;20.63;;;;;;;;;;4979816;28;20424;-88
2021/10/06 00:57:05;;;;;;;22.07;20.53;;;;;;;;;;4996535;28;20477;-88
2021/10/06 00:59:33;;;;;;;22.30;20.97;;;;;;;;;;4996826;28;20453;-88
2021/10/06 01:02:00;;;;;;;21.60;20.40;;;;;;;;;;4996893;28;20423;-88
2021/10/06 01:04:29;;;;;;;21.90;20.40;;;;;;;;;;4996840;28;20449;-88
2021/10/06 01:06:57;;;;;;;22.27;20.70;;;;;;;;;;4996801;28;20412;-88
2021/10/06 01:09:27;;;;;;;23.33;21.80;;;;;;;;;;4996719;28;20477;-89
2021/10/06 01:11:55;;;;;;;23.17;21.53;;;;;;;;;;4996393;28;20420;-89
2021/10/06 01:14:22;;;;;;;22.93;21.03;;;;;;;;;;4996533;28;20429;-88
2021/10/06 01:16:50;;;;;;;21.53;20.23;;;;;;;;;;4996524;28;20779;-88
2021/10/06 01:19:21;;;;;;;23.00;21.50;;;;;;;;;;4971822;28;20845;-87
2021/10/06 01:21:50;;;;;;;23.33;21.63;;;;;;;;;;4977012;28;20480;-88
2021/10/06 01:24:18;;;;;;;23.10;21.60;;;;;;;;;;4976836;28;20434;-88
2021/10/06 01:26:46;;;;;;;22.87;21.27;;;;;;;;;;4976816;28;20427;-88
2021/10/06 01:29:15;;;;;;;24.43;22.83;;;;;;;;;;4976848;28;20490;-88
2021/10/06 01:31:43;;;;;;;23.47;22.07;;;;;;;;;;4977317;28;20434;-88
2021/10/06 01:34:10;;;;;;;22.57;21.27;;;;;;;;;;4976841;28;20932;-88
2021/10/06 01:36:38;;;;;;;23.10;21.63;;;;;;;;;;4976849;28;20450;-89
2021/10/06 01:39:07;;;;;;;23.77;22.00;;;;;;;;;;4976422;28;20823;-89
2021/10/06 01:41:35;;;;;;;24.00;22.30;;;;;;;;;;4976276;28;20442;-88
2021/10/06 01:44:02;;;;;;;22.37;20.83;;;;;;;;;;4976464;28;20434;-88
2021/10/06 01:46:30;;;;;;;23.23;21.73;;;;;;;;;;4976222;28;20438;-89
2021/10/06 01:48:58;;;;;;;22.10;20.60;;;;;;;;;;4976278;28;20995;-88
2021/10/06 01:51:25;;;;;;;23.30;21.70;;;;;;;;;;4976508;28;20474;-89
2021/10/06 01:53:53;;;;;;;22.97;21.50;;;;;;;;;;4976182;28;20427;-88
2021/10/06 01:56:22;;;;;;;22.50;21.20;;;;;;;;;;4958821;28;20454;-89
2021/10/06 01:58:50;;;;;;;22.93;21.17;;;;;;;;;;4975805;28;20420;-89
2021/10/06 02:01:18;;;;;;;23.20;21.73;;;;;;;;;;4975300;28;20450;-88
2021/10/06 02:03:45;;;;;;;22.00;20.70;;;;;;;;;;4976114;28;20466;-88
2021/10/06 02:06:12;;;;;;;23.17;21.37;;;;;;;;;;4975865;28;20949;-89
2021/10/06 02:08:40;;;;;;;23.20;21.43;;;;;;;;;;4976053;28;20417;-88
2021/10/06 02:11:07;;;;;;;23.10;21.60;;;;;;;;;;4975777;28;20428;-88
2021/10/06 02:13:36;;;;;;;24.30;22.70;;;;;;;;;;4975732;28;20954;-88
2021/10/06 02:16:03;;;;;;;23.03;21.23;;;;;;;;;;4975866;28;20408;-88
2021/10/06 02:18:31;;;;;;;22.83;21.27;;;;;;;;;;4975434;28;20465;-89
2021/10/06 02:20:58;;;;;;;22.73;21.20;;;;;;;;;;4976645;28;20453;-88
2021/10/06 02:23:26;;;;;;;22.87;20.97;;;;;;;;;;4995350;28;20454;-89
2021/10/06 02:25:53;;;;;;;22.80;21.27;;;;;;;;;;4995133;28;20416;-88
2021/10/06 02:28:20;;;;;;;23.50;21.90;;;;;;;;;;4977578;28;20428;-88
2021/10/06 02:30:50;;;;;;;22.90;21.20;;;;;;;;;;4994805;28;20484;-88
2021/10/06 02:33:18;;;;;;;23.93;22.10;;;;;;;;;;4977665;28;20863;-88
2021/10/06 02:35:45;;;;;;;22.63;21.13;;;;;;;;;;4994651;28;20939;-88
2021/10/06 02:38:13;;;;;;;23.57;22.17;;;;;;;;;;4978093;28;20926;-88
2021/10/06 02:40:40;;;;;;;22.50;21.00;;;;;;;;;;4977874;28;20922;-88
2021/10/06 02:43:08;;;;;;;22.97;21.40;;;;;;;;;;4994839;28;20420;-88
2021/10/06 02:45:35;;;;;;;24.47;21.97;;;;;;;;;;4994682;28;20762;-88
2021/10/06 02:48:04;;;;;;;22.67;21.13;;;;;;;;;;4994673;28;20469;-88
2021/10/06 02:50:31;;;;;;;23.33;21.83;;;;;;;;;;4994475;28;20489;-88
2021/10/06 02:52:59;;;;;;;22.63;21.10;;;;;;;;;;4977867;28;20420;-88
2021/10/06 02:55:27;;;;;;;23.50;21.87;;;;;;;;;;4994993;28;20437;-88
2021/10/06 02:57:54;;;;;;;22.53;21.13;;;;;;;;;;4994761;28;20449;-89
2021/10/06 03:00:22;;;;;;;23.27;21.80;;;;;;;;;;4994570;28;20439;-88
2021/10/06 03:02:49;;;;;;;22.70;21.40;;;;;;;;;;4994373;28;20878;-89
2021/10/06 03:05:18;;;;;;;22.60;21.13;;;;;;;;;;4994594;28;20461;-88
2021/10/06 03:07:45;;;;;;;24.03;22.23;;;;;;;;;;4994628;28;20458;-89
2021/10/06 03:10:13;;;;;;;23.67;22.07;;;;;;;;;;4977265;28;20893;-88
2021/10/06 03:12:41;;;;;;;23.47;21.67;;;;;;;;;;4997494;28;20539;-88
2021/10/06 03:15:09;;;;;;;22.37;20.80;;;;;;;;;;5001249;28;20439;-88
2021/10/06 03:17:37;;;;;;;22.50;21.10;;;;;;;;;;5000914;28;20455;-88
2021/10/06 03:20:04;;;;;;;24.07;22.17;;;;;;;;;;5000617;28;20455;-89
2021/10/06 03:22:33;;;;;;;25.00;22.83;;;;;;;;;;5001075;28;20429;-88
2021/10/06 03:25:01;;;;;;;22.13;20.83;;;;;;;;;;5001021;28;20419;-88
2021/10/06 03:27:28;;;;;;;22.30;20.80;;;;;;;;;;5000594;28;20424;-88
2021/10/06 03:29:55;;;;;;;22.50;21.10;;;;;;;;;;5001077;28;20476;-89
2021/10/06 03:32:23;;;;;;;22.10;20.80;;;;;;;;;;5000937;28;20445;-88
2021/10/06 03:34:50;;;;;;;21.90;20.40;;;;;;;;;;5000919;28;20412;-89
2021/10/06 03:37:18;;;;;;;23.70;22.00;;;;;;;;;;4983632;28;20477;-88
2021/10/06 03:39:46;;;;;;;22.23;20.70;;;;;;;;;;5000982;28;20445;-88
2021/10/06 03:42:14;;;;;;;21.17;19.90;;;;;;;;;;5000949;28;20441;-88
2021/10/06 03:44:41;;;;;;;21.63;20.20;;;;;;;;;;5000832;28;20457;-87
2021/10/06 03:47:09;;;;;;;23.50;21.37;;;;;;;;;;5001004;28;20478;-88
2021/10/06 03:49:36;;;;;;;21.07;19.83;;;;;;;;;;5001028;28;20455;-88
2021/10/06 03:52:04;;;;;;;21.77;20.43;;;;;;;;;;4983237;28;20943;-88
2021/10/06 03:54:31;;;;;;;20.87;19.60;;;;;;;;;;5000298;28;20441;-89
2021/10/06 03:57:00;;;;;;;22.77;20.70;;;;;;;;;;5000589;28;20404;-89
2021/10/06 03:59:27;;;;;;;22.03;20.83;;;;;;;;;;5000534;28;20446;-89
2021/10/06 04:01:55;;;;;;;21.40;20.07;;;;;;;;;;5000872;28;20407;-89
2021/10/06 04:04:22;;;;;;;21.07;19.67;;;;;;;;;;5000583;28;20414;-89
2021/10/06 04:06:49;;;;;;;22.07;20.60;;;;;;;;;;4982969;28;20424;-89
2021/10/06 04:09:17;;;;;;;21.63;19.93;;;;;;;;;;5000222;28;20452;-89
2021/10/06 04:11:44;;;;;;;21.27;19.90;;;;;;;;;;5000445;28;20526;-89
2021/10/06 04:14:13;;;;;;;21.77;20.13;;;;;;;;;;5000369;28;20452;-89
2021/10/06 04:16:41;;;;;;;22.20;20.80;;;;;;;;;;4983507;28;20453;-88
2021/10/06 04:19:08;;;;;;;22.50;20.87;;;;;;;;;;5000344;28;20488;-89
2021/10/06 04:21:35;;;;;;;21.83;20.20;;;;;;;;;;5000329;28;20423;-89
2021/10/06 04:24:03;;;;;;;21.47;19.80;;;;;;;;;;4998748;28;20424;-89
2021/10/06 04:26:30;;;;;;;21.00;19.40;;;;;;;;;;4997435;28;20423;-89
2021/10/06 04:28:58;;;;;;;21.30;19.90;;;;;;;;;;4997376;28;20458;-89
2021/10/06 04:31:27;;;;;;;21.27;19.77;;;;;;;;;;4997018;28;20980;-89
2021/10/06 04:33:54;;;;;;;20.80;19.70;;;;;;;;;;4997167;28;20440;-89
2021/10/06 04:36:21;;;;;;;21.47;19.97;;;;;;;;;;4997263;28;20400;-89
2021/10/06 04:38:49;;;;;;;21.80;20.40;;;;;;;;;;4979967;28;20416;-90
2021/10/06 04:41:16;;;;;;;22.43;20.73;;;;;;;;;;4997114;28;21189;-89
2021/10/06 04:43:44;;;;;;;21.80;20.60;;;;;;;;;;4997473;28;20442;-88
2021/10/06 04:46:11;;;;;;;21.53;20.40;;;;;;;;;;4997689;28;20408;-88
2021/10/06 04:48:40;;;;;;;21.73;20.40;;;;;;;;;;4997261;28;20484;-88
2021/10/06 04:51:07;;;;;;;21.40;20.10;;;;;;;;;;4997135;28;20850;-88
2021/10/06 04:53:35;;;;;;;21.37;19.80;;;;;;;;;;4996736;28;20447;-88
2021/10/06 04:56:02;;;;;;;20.93;19.53;;;;;;;;;;4996774;28;20474;-87
2021/10/06 04:58:29;;;;;;;21.87;20.30;;;;;;;;;;4996891;28;20493;-89
2021/10/06 05:00:57;;;;;;;21.03;19.73;;;;;;;;;;4979468;28;20432;-88
2021/10/06 05:03:24;;;;;;;21.23;19.83;;;;;;;;;;4979781;28;20906;-88
2021/10/06 05:05:53;;;;;;;21.27;20.03;;;;;;;;;;4996094;28;20858;-87
2021/10/06 05:08:20;;;;;;;21.50;20.10;;;;;;;;;;4996481;28;20424;-88
2021/10/06 05:10:48;;;;;;;21.43;20.10;;;;;;;;;;4996892;28;20820;-89
2021/10/06 05:13:15;;;;;;;20.37;19.10;;;;;;;;;;4997115;28;20441;-88
2021/10/06 05:15:43;;;;;;;20.00;18.90;;;;;;;;;;4996737;28;20441;-88
2021/10/06 05:18:10;;;;;;;21.07;19.43;;;;;;;;;;4979143;28;20416;-88
2021/10/06 05:20:37;;;;;;;20.87;19.70;;;;;;;;;;4996279;28;20485;-88
2021/10/06 05:23:06;;;;;;;21.20;19.63;;;;;;;;;;4996794;28;20973;-89
2021/10/06 05:25:35;;;;;;;21.47;20.17;;;;;;;;;;4996523;28;20424;-88
2021/10/06 05:28:02;;;;;;;20.63;19.43;;;;;;;;;;4996134;28;20450;-89
2021/10/06 05:30:30;;;;;;;21.13;19.63;;;;;;;;;;4996352;28;20491;-88
2021/10/06 05:32:57;;;;;;;21.67;19.90;;;;;;;;;;4979281;28;20475;-89
2021/10/06 05:35:24;;;;;;;22.77;21.10;;;;;;;;;;4995670;28;20434;-89
2021/10/06 05:37:52;;;;;;;21.10;19.63;;;;;;;;;;4995684;28;20441;-88
2021/10/06 05:40:21;;;;;;;20.93;19.50;;;;;;;;;;4995960;28;20461;-88
2021/10/06 05:42:48;;;;;;;20.40;19.20;;;;;;;;;;4996302;28;20435;-89
2021/10/06 05:45:16;;;;;;;20.30;19.20;;;;;;;;;;4995909;28;20432;-87
2021/10/06 05:47:43;;;;;;;21.33;19.77;;;;;;;;;;4996075;28;20485;-87
2021/10/06 05:50:10;;;;;;;20.23;19.03;;;;;;;;;;4995988;28;20480;-89
2021/10/06 05:52:38;;;;;;;20.10;18.97;;;;;;;;;;4978525;28;20452;-91
2021/10/06 05:55:06;;;;;;;19.30;18.30;;;;;;;;;;4978864;28;20429;-89
2021/10/06 05:57:35;;;;;;;21.53;20.07;;;;;;;;;;4996097;28;20452;-91
2021/10/06 06:00:03;;;;;;;20.00;18.90;;;;;;;;;;4996015;28;20419;-89
2021/10/06 06:02:30;;;;;;;19.93;18.73;;;;;;;;;;4978499;28;20457;-91
2021/10/06 06:04:57;;;;;;;21.00;19.67;;;;;;;;;;4995871;28;20412;-91
2021/10/06 06:07:25;;;;;;;21.03;19.57;;;;;;;;;;4995697;28;20434;-91
2021/10/06 06:09:52;;;;;;;21.70;19.97;;;;;;;;;;4995299;28;20424;-92
2021/10/06 06:12:19;;;;;;;20.00;18.90;;;;;;;;;;4995313;28;20445;-92
2021/10/06 06:14:48;;;;;;;20.50;19.13;;;;;;;;;;4995279;28;20427;-92
2021/10/06 06:17:16;;;;;;;20.63;19.30;;;;;;;;;;4995513;28;20997;-90
2021/10/06 06:19:43;;;;;;;20.30;19.20;;;;;;;;;;4995277;28;20957;-92
2021/10/06 06:22:11;;;;;;;20.67;19.17;;;;;;;;;;4995288;28;20404;-91
2021/10/06 06:24:38;;;;;;;20.70;19.50;;;;;;;;;;4995390;28;20408;-91
2021/10/06 06:27:07;;;;;;;20.53;19.13;;;;;;;;;;4987033;28;20411;-89
2021/10/06 06:29:34;;;;;;;19.97;18.73;;;;;;;;;;4995208;28;20732;-89
2021/10/06 06:32:04;;;;;;;21.70;19.70;;;;;;;;;;4995320;28;20456;-91
2021/10/06 06:34:31;;;;;;;20.33;19.00;;;;;;;;;;4995037;28;20792;-93
2021/10/06 06:36:59;;;;;;;20.17;18.97;;;;;;;;;;4995141;28;20451;-91
2021/10/06 06:39:26;;;;;;;20.50;19.37;;;;;;;;;;4994982;28;20445;-89
2021/10/06 06:41:54;;;;;;;19.83;18.63;;;;;;;;;;4994774;28;20463;-89
2021/10/06 06:44:21;;;;;;;21.90;20.00;;;;;;;;;;4994768;28;20441;-88
2021/10/06 06:46:49;;;;;;;20.27;19.07;;;;;;;;;;4994503;28;20456;-88
2021/10/06 06:49:18;;;;;;;20.10;18.80;;;;;;;;;;4994956;28;20792;-89
2021/10/06 06:51:45;;;;;;;20.27;19.17;;;;;;;;;;4995250;28;20451;-88
2021/10/06 06:54:12;;;;;;;19.90;18.70;;;;;;;;;;4994642;28;20461;-87
2021/10/06 06:56:40;;;;;;;21.10;19.93;;;;;;;;;;4977567;28;20456;-89
2021/10/06 06:59:08;;;;;;;20.63;19.40;;;;;;;;;;4994527;28;20454;-89
2021/10/06 07:01:36;;;;;;;20.00;18.50;;;;;;;;;;4994761;28;20469;-89
2021/10/06 07:04:03;;;;;;;20.33;18.83;;;;;;;;;;4977944;28;20419;-88
2021/10/06 07:06:35;;;;;;;19.70;18.60;;;;;;;;;;4995007;28;20408;-88
2021/10/06 07:09:02;;;;;;;20.60;19.10;;;;;;;;;;4994810;28;20468;-88
2021/10/06 07:11:30;;;;;;;19.70;18.53;;;;;;;;;;4994649;28;20467;-88
2021/10/06 07:13:57;;;;;;;21.53;20.17;;;;;;;;;;4994424;28;20437;-89
2021/10/06 07:16:25;;;;;;;20.17;18.93;;;;;;;;;;4994820;28;20433;-88
2021/10/06 07:18:52;;;;;;;20.57;18.97;;;;;;;;;;4994720;28;20485;-88
2021/10/06 07:21:20;;;;;;;21.20;19.80;;;;;;;;;;4994634;28;20870;-88
2021/10/06 07:23:49;;;;;;;20.50;19.20;;;;;;;;;;4994357;28;20453;-89
2021/10/06 07:26:17;;;;;;;20.50;19.13;;;;;;;;;;4994527;28;20453;-93
2021/10/06 07:28:44;;;;;;;21.13;19.73;;;;;;;;;;4994530;28;20545;-89
2021/10/06 07:31:12;;;;;;;21.20;19.60;;;;;;;;;;4994215;28;20475;-89
2021/10/06 07:33:39;;;;;;;20.10;18.70;;;;;;;;;;4976998;28;20512;-88
2021/10/06 07:36:07;;;;;;;20.40;18.80;;;;;;;;;;4994495;28;20457;-88
2021/10/06 07:38:34;;;;;;;19.97;18.87;;;;;;;;;;4994849;28;20420;-89
2021/10/06 07:41:03;;;;;;;20.20;19.13;;;;;;;;;;4994499;28;20454;-89
2021/10/06 07:43:31;;;;;;;19.93;18.73;;;;;;;;;;4994334;28;20817;-89
2021/10/06 07:45:58;;;;;;;20.27;18.97;;;;;;;;;;4994709;28;20411;-89
2021/10/06 07:48:25;;;;;;;20.13;18.83;;;;;;;;;;4994228;28;20435;-89
2021/10/06 07:50:53;;;;;;;20.77;19.50;;;;;;;;;;4994108;28;20981;-89
2021/10/06 07:53:20;;;;;;;21.23;19.60;;;;;;;;;;4976833;28;20424;-89
2021/10/06 07:55:48;;;;;;;20.90;19.40;;;;;;;;;;4994466;28;20909;-89
2021/10/06 07:58:17;;;;;;;21.03;19.83;;;;;;;;;;4976920;28;20484;-89
2021/10/06 08:00:45;;;;;;;21.03;19.40;;;;;;;;;;4997686;28;20448;-89
2021/10/06 08:03:12;;;;;;;20.53;19.33;;;;;;;;;;4998279;28;20441;-88
2021/10/06 08:05:39;;;;;;;20.60;19.40;;;;;;;;;;4998084;28;20419;-89
2021/10/06 08:08:07;;;;;;;20.80;19.33;;;;;;;;;;4998051;28;20435;-89
2021/10/06 08:10:34;;;;;;;20.80;19.60;;;;;;;;;;4998007;28;20416;-89
2021/10/06 08:13:03;;;;;;;23.20;21.73;;;;;;;;;;4998098;28;20445;-89
2021/10/06 08:15:34;;;;;;;21.50;20.10;;;;;;;;;;4980480;28;20423;-88
2021/10/06 08:18:02;;;;;;;20.40;19.20;;;;;;;;;;4997745;28;20416;-88
2021/10/06 08:20:32;;;;;;;20.70;19.40;;;;;;;;;;4997761;28;20499;-89
2021/10/06 08:23:00;;;;;;;20.30;19.20;;;;;;;;;;4997130;28;20507;-89
2021/10/06 08:25:28;;;;;;;20.80;19.60;;;;;;;;;;4997680;28;20460;-91
2021/10/06 08:27:55;;;;;;;21.23;20.03;;;;;;;;;;4997445;28;20411;-90
2021/10/06 08:30:23;;;;;;;21.33;19.77;;;;;;;;;;4997512;28;20519;-89
2021/10/06 08:32:52;;;;;;;20.80;19.40;;;;;;;;;;4997239;28;20463;-89
2021/10/06 08:35:19;;;;;;;20.60;19.40;;;;;;;;;;4997057;28;20771;-89
2021/10/06 08:37:46;;;;;;;20.93;19.70;;;;;;;;;;4997166;28;20416;-89
2021/10/06 08:40:15;;;;;;;20.33;19.10;;;;;;;;;;4997115;28;20437;-89
2021/10/06 08:42:42;;;;;;;20.73;19.37;;;;;;;;;;4997267;28;20445;-89
2021/10/06 08:45:10;;;;;;;20.80;19.70;;;;;;;;;;4997155;28;20518;-90
2021/10/06 08:47:38;;;;;;;21.97;20.57;;;;;;;;;;4979802;28;20909;-88
2021/10/06 08:50:10;;;;;;;20.53;19.23;;;;;;;;;;4997310;28;20787;-90
2021/10/06 08:52:38;;;;;;;21.17;19.87;;;;;;;;;;4997025;28;20463;-89
2021/10/06 08:55:06;;;;;;;20.87;19.67;;;;;;;;;;4996826;28;20444;-89
2021/10/06 08:57:34;;;;;;;20.80;19.53;;;;;;;;;;4996401;28;20457;-87
2021/10/06 09:00:01;;;;;;;21.03;19.50;;;;;;;;;;4996978;28;20445;-88
2021/10/06 09:02:36;;;;;;;20.57;19.37;;;;;;;;;;4979410;28;20424;-88
2021/10/06 09:05:04;;;;;;;21.10;19.77;;;;;;;;;;4997081;28;20503;-88
2021/10/06 09:07:33;;;;;;;21.83;20.33;;;;;;;;;;4996783;28;20445;-87
2021/10/06 09:10:14;;;;;;;20.40;19.10;;;;;;;;;;4996455;28;20412;-86
2021/10/06 09:12:54;;;;;;;20.70;19.40;;;;;;;;;;4996346;28;20523;-88
2021/10/06 09:15:22;;;;;;;20.43;19.33;;;;;;;;;;4979383;28;20466;-87
2021/10/06 09:17:53;;;;;;;21.03;19.80;;;;;;;;;;4996390;28;20423;-87
2021/10/06 09:20:20;;;;;;;20.70;19.60;;;;;;;;;;4995918;28;20474;-87
2021/10/06 09:23:02;;;;;;;20.13;19.13;;;;;;;;;;4996078;28;20452;-86
2021/10/06 09:25:36;;;;;;;20.40;19.40;;;;;;;;;;4996131;28;20432;-86
2021/10/06 09:28:07;;;;;;;20.30;19.10;;;;;;;;;;4995779;28;20460;-86
2021/10/06 09:30:35;;;;;;;20.50;19.23;;;;;;;;;;4996269;28;20457;-87
2021/10/06 09:33:04;;;;;;;20.70;19.27;;;;;;;;;;4995946;28;20524;-91
2021/10/06 09:35:32;;;;;;;20.50;19.03;;;;;;;;;;4996234;28;20432;-84
2021/10/06 09:37:59;;;;;;;20.53;19.43;;;;;;;;;;4978178;28;20510;-85
2021/10/06 09:40:29;;;;;;;21.13;19.93;;;;;;;;;;4995578;28;20493;-85
2021/10/06 09:42:58;;;;;;;21.10;19.70;;;;;;;;;;4995687;28;20424;-85
2021/10/06 09:45:27;;;;;;;19.50;18.50;;;;;;;;;;4995106;28;20451;-83
2021/10/06 09:48:05;;;;;;;19.83;18.83;;;;;;;;;;4994941;28;20523;-84
2021/10/06 09:50:33;;;;;;;19.27;18.27;;;;;;;;;;4994895;28;20441;-83
2021/10/06 09:53:08;;;;;;;20.10;18.93;;;;;;;;;;4994635;28;20489;-84
2021/10/06 09:55:37;;;;;;;19.40;18.30;;;;;;;;;;4994607;28;20423;-84
2021/10/06 09:58:05;;;;;;;20.63;19.43;;;;;;;;;;4995271;28;20446;-90
2021/10/06 10:00:33;;;;;;;20.30;18.93;;;;;;;;;;4995806;28;20436;-90
2021/10/06 10:03:00;;;;;;;20.77;19.57;;;;;;;;;;4995182;28;20470;-84
2021/10/06 10:05:28;;;;;;;21.13;19.83;;;;;;;;;;4994843;28;20523;-83
2021/10/06 10:07:55;;;;;;;22.20;20.93;;;;;;;;;;4994345;28;20918;-83
2021/10/06 10:10:23;;;;;;;20.53;19.30;;;;;;;;;;4994989;28;20450;-83
2021/10/06 10:12:52;;;;;;;21.50;20.23;;;;;;;;;;4994376;28;20456;-84
2021/10/06 10:15:21;;;;;;;21.83;20.13;;;;;;;;;;4994366;28;20801;-84
2021/10/06 10:17:53;;;;;;;21.30;20.20;;;;;;;;;;4994428;28;20500;-83
2021/10/06 10:20:20;;;;;;;21.70;20.50;;;;;;;;;;4994173;28;20715;-83
2021/10/06 10:22:49;;;;;;;21.30;20.10;;;;;;;;;;4993536;28;20513;-83
2021/10/06 10:25:18;;;;;;;21.37;20.17;;;;;;;;;;4994529;28;20464;-84
2021/10/06 10:28:04;;;;;;;20.53;19.43;;;;;;;;;;4976608;28;20547;-84
2021/10/06 10:30:32;;;;;;;20.70;19.67;;;;;;;;;;4994331;28;20416;-84
2021/10/06 10:33:00;;;;;;;21.43;19.77;;;;;;;;;;4994237;28;20459;-84
2021/10/06 10:35:44;;;;;;;21.07;19.90;;;;;;;;;;4994412;28;20420;-84
2021/10/06 10:38:25;;;;;;;20.60;19.40;;;;;;;;;;4994577;28;20412;-84
2021/10/06 10:40:54;;;;;;;20.37;19.17;;;;;;;;;;4993975;28;21062;-84
2021/10/06 10:43:24;;;;;;;20.50;19.30;;;;;;;;;;4994667;28;20441;-84
2021/10/06 10:45:53;;;;;;;20.33;19.23;;;;;;;;;;4993885;28;20446;-83
2021/10/06 10:48:21;;;;;;;21.13;19.90;;;;;;;;;;4994020;28;20900;-83
2021/10/06 10:51:08;;;;;;;20.73;19.53;;;;;;;;;;4993815;28;20408;-82
2021/10/06 10:53:54;;;;;;;19.50;18.40;;;;;;;;;;4993667;28;20968;-83
2021/10/06 10:56:26;;;;;;;20.53;19.17;;;;;;;;;;4993401;28;20424;-83
2021/10/06 10:59:06;;;;;;;19.97;18.90;;;;;;;;;;4993595;28;20424;-82
2021/10/06 11:01:41;;;;;;;20.43;19.30;;;;;;;;;;4993334;28;20420;-83
2021/10/06 11:04:09;;;;;;;19.67;18.67;;;;;;;;;;4993800;28;20438;-82
2021/10/06 11:06:36;;;;;;;19.60;18.30;;;;;;;;;;4993510;28;20408;-83
2021/10/06 11:09:04;;;;;;;20.10;19.00;;;;;;;;;;4993805;28;20891;-83
2021/10/06 11:11:31;;;;;;;20.03;18.90;;;;;;;;;;4993298;28;20905;-83
2021/10/06 11:14:19;;;;;;;20.10;18.90;;;;;;;;;;4993526;28;20453;-83
2021/10/06 11:19:45;;;;;;;20.20;18.90;;;;;;;;;;5111203;27;20550;-84
2021/10/06 11:22:31;;;;;;;20.37;19.27;;;;;;;;;;5110690;28;20418;-85
2021/10/06 11:24:59;;;;;;;19.30;18.30;;;;;;;;;;5111000;28;20877;-82
2021/10/06 11:27:27;;;;;;;20.90;19.60;;;;;;;;;;5110715;28;20415;-82
2021/10/06 11:29:55;;;;;;;20.43;19.33;;;;;;;;;;5110672;28;20444;-81
2021/10/06 11:32:23;;;;;;;21.60;20.20;;;;;;;;;;5110789;28;20419;-82
2021/10/06 11:34:52;;;;;;;19.33;18.33;;;;;;;;;;5110571;28;20455;-81
2021/10/06 11:37:20;;;;;;;21.20;19.77;;;;;;;;;;5110469;28;20428;-83
2021/10/06 11:39:48;;;;;;;20.73;19.53;;;;;;;;;;5110682;28;20415;-82
2021/10/06 11:42:16;;;;;;;19.70;18.60;;;;;;;;;;5110252;28;20888;-82
2021/10/06 11:44:43;;;;;;;19.93;18.73;;;;;;;;;;5110654;28;20432;-82
2021/10/06 11:47:12;;;;;;;19.37;18.37;;;;;;;;;;5110315;28;20473;-82
2021/10/06 11:49:40;;;;;;;20.10;18.80;;;;;;;;;;5110732;28;20427;-82
2021/10/06 11:52:10;;;;;;;20.20;19.10;;;;;;;;;;5110524;27;20453;-81
2021/10/06 11:54:37;;;;;;;19.70;18.70;;;;;;;;;;5109543;28;20415;-82
2021/10/06 11:57:07;;;;;;;21.03;19.77;;;;;;;;;;5088673;28;20919;-81
2021/10/06 11:59:35;;;;;;;21.60;20.47;;;;;;;;;;5089349;28;20476;-83
2021/10/06 12:02:04;;;;;;;20.43;19.30;;;;;;;;;;5094638;28;21028;-81
2021/10/06 12:04:33;;;;;;;21.27;20.07;;;;;;;;;;5098323;28;20441;-82
2021/10/06 12:07:02;;;;;;;19.70;18.70;;;;;;;;;;5100036;28;20418;-82
2021/10/06 12:09:36;;;;;;;19.97;18.87;;;;;;;;;;5098340;28;20422;-82
2021/10/06 12:12:04;;;;;;;20.83;19.73;;;;;;;;;;5097601;28;20426;-82
2021/10/06 12:14:33;;;;;;;20.30;19.10;;;;;;;;;;5094600;28;20516;-82
2021/10/06 12:17:05;;;;;;;19.10;18.20;;;;;;;;;;5096190;28;20436;-82
2021/10/06 12:19:33;;;;;;;19.63;18.63;;;;;;;;;;5096791;28;20478;-82
2021/10/06 12:22:00;;;;;;;20.23;19.13;;;;;;;;;;5098403;28;20407;-82
2021/10/06 12:24:28;;;;;;;19.53;18.63;;;;;;;;;;5094742;28;20907;-81
2021/10/06 12:26:58;;;;;;;20.37;19.37;;;;;;;;;;5089478;28;20412;-82
2021/10/06 12:29:27;;;;;;;19.40;18.50;;;;;;;;;;5084006;28;20485;-82
2021/10/06 12:31:56;;;;;;;18.93;18.03;;;;;;;;;;5075716;28;20765;-83
2021/10/06 12:34:25;;;;;;;20.37;19.37;;;;;;;;;;5076022;28;20427;-83
2021/10/06 12:36:53;;;;;;;18.40;17.60;;;;;;;;;;5075701;28;20472;-81
2021/10/06 12:39:23;;;;;;;19.87;18.77;;;;;;;;;;5075537;28;20463;-85
2021/10/06 12:41:54;;;;;;;19.73;18.50;;;;;;;;;;5075414;28;20413;-82
2021/10/06 12:44:41;;;;;;;21.30;20.10;;;;;;;;;;5075506;28;20474;-83
2021/10/06 12:47:11;;;;;;;18.83;18.03;;;;;;;;;;5075106;28;20472;-82
2021/10/06 12:49:46;;;;;;;20.93;19.10;;;;;;;;;;5075636;28;20420;-83
2021/10/06 12:52:20;;;;;;;19.73;18.73;;;;;;;;;;5075487;28;20437;-82
2021/10/06 12:54:48;;;;;;;19.33;18.23;;;;;;;;;;5075230;28;20411;-82
2021/10/06 12:57:15;;;;;;;18.97;17.83;;;;;;;;;;5075126;28;20409;-82
2021/10/06 12:59:44;;;;;;;20.70;18.90;;;;;;;;;;5075144;28;20478;-82
2021/10/06 13:02:12;;;;;;;19.33;18.30;;;;;;;;;;5074953;28;20435;-82
2021/10/06 13:04:40;;;;;;;18.77;17.67;;;;;;;;;;5074992;28;20437;-82
2021/10/06 13:07:08;;;;;;;19.07;18.13;;;;;;;;;;5075016;28;20464;-82
2021/10/06 13:09:36;;;;;;;18.70;17.80;;;;;;;;;;5074771;28;20797;-82
2021/10/06 13:12:04;;;;;;;19.40;18.20;;;;;;;;;;5075019;28;20416;-82
2021/10/06 13:14:32;;;;;;;19.00;17.90;;;;;;;;;;5076323;28;20419;-81
2021/10/06 13:17:01;;;;;;;19.40;18.20;;;;;;;;;;5074973;28;20417;-82
2021/10/06 13:19:28;;;;;;;18.60;17.70;;;;;;;;;;5074143;28;20483;-82
2021/10/06 13:21:58;;;;;;;18.77;17.87;;;;;;;;;;5074810;28;20412;-82
2021/10/06 13:24:26;;;;;;;18.70;17.80;;;;;;;;;;5080680;28;20491;-83
2021/10/06 13:26:53;;;;;;;19.60;18.30;;;;;;;;;;5082807;28;20408;-82
2021/10/06 13:29:22;;;;;;;18.90;17.90;;;;;;;;;;5081778;28;20401;-82
2021/10/06 13:31:49;;;;;;;18.43;17.37;;;;;;;;;;5074440;28;20408;-82
2021/10/06 13:34:18;;;;;;;18.83;17.73;;;;;;;;;;5073007;28;20417;-82
2021/10/06 13:36:46;;;;;;;18.70;17.80;;;;;;;;;;5074285;28;20411;-83
2021/10/06 13:39:14;;;;;;;19.10;18.00;;;;;;;;;;5074489;28;20486;-81
2021/10/06 13:41:41;;;;;;;18.27;17.33;;;;;;;;;;5072877;28;20413;-82
2021/10/06 13:44:09;;;;;;;18.87;17.87;;;;;;;;;;5075033;28;20430;-82
2021/10/06 13:46:36;;;;;;;20.00;18.90;;;;;;;;;;5074024;28;20500;-82
2021/10/06 13:49:04;;;;;;;19.23;18.20;;;;;;;;;;5074061;28;20409;-82
2021/10/06 13:51:34;;;;;;;19.57;18.53;;;;;;;;;;5074180;28;20495;-82
2021/10/06 13:54:01;;;;;;;18.33;17.23;;;;;;;;;;5073904;28;20421;-82
2021/10/06 13:56:29;;;;;;;18.00;17.10;;;;;;;;;;5081508;28;20407;-82
2021/10/06 13:58:57;;;;;;;18.93;18.00;;;;;;;;;;5084160;28;20974;-81
2021/10/06 14:01:25;;;;;;;18.40;17.50;;;;;;;;;;5082977;28;20486;-82
2021/10/06 14:03:53;;;;;;;19.27;18.27;;;;;;;;;;5093607;28;20910;-81
2021/10/06 14:06:20;;;;;;;19.10;18.00;;;;;;;;;;5084011;28;20416;-83
2021/10/06 14:08:49;;;;;;;19.03;18.03;;;;;;;;;;5092507;28;20434;-83
2021/10/06 14:11:16;;;;;;;18.77;17.13;;;;;;;;;;5094216;28;20408;-83
2021/10/06 14:13:44;;;;;;;18.97;18.00;;;;;;;;;;5093895;28;20433;-83
2021/10/06 14:16:11;;;;;;;18.73;17.73;;;;;;;;;;5094123;28;20431;-83
2021/10/06 14:18:38;;;;;;;17.23;16.53;;;;;;;;;;5093849;28;20475;-82
2021/10/06 14:21:08;;;;;;;18.67;17.83;;;;;;;;;;5094732;28;20444;-82
2021/10/06 14:23:35;;;;;;;18.33;17.53;;;;;;;;;;5093801;28;20501;-82
2021/10/06 14:26:04;;;;;;;18.17;17.20;;;;;;;;;;5093992;28;20464;-82